MMZC/ZCL METAR and TAF weather

Enter ICAO airport designator
Station Type Date Time Source
MMZC METAR 2018/12/11 17:42 UTC NOAA

MMZC 111742Z 00000KT 10SM BKN200 12/08 A3037 RMK 8/001


Station Type Date Time Source
MMZC Decoded METAR 2018/12/11 17:42 UTC NOAA

Zacatecas Airport, Mexico (MMZC) 22-54N 102-41W
Dec 11, 2018 - 12:42 PM EST / 2018.12.11 1742 UTC
Wind: Calm:0
Visibility: 10 mile(s):0
Sky conditions: mostly cloudy
Temperature: 53 F (12 C)
Dew Point: 46 F (8 C)
Relative Humidity: 76%
Pressure (altimeter): 30.37 in. Hg (1028 hPa)
ob: MMZC 111742Z 00000KT 10SM BKN200 12/08 A3037 RMK 8/001
cycle: 17

Station Type Date Time Source
MMZC TAF 2018/12/11 18:51 UTC NOAA

TAF MMZC 111648Z 1118/1224 23015KT 4SM HZ BKN010 TX17/1121Z TN02/1212Z
BECMG 1119/1120 6SM HZ SCT020 SCT220
FM120400 25012KT P6SM BKN220
FM121700 25015G25KT P6SM BKN020 BKN220


Example: see airport list